Главная страница
METAR-TAF:

METAR-TAF

Аэропорты :

Кингстон, Ямайка

широта: 17-56N, долгота: 076-47W, высота над уровнем моря: 3 м

Текущие метеонаблюдения

Эта сводка был подготовлена 40 минут назад, в 03:00 UTC
Ветер 10 Узел от восточно-юго-восточный
Температура 29°C
Влажность 70%
Давление 1014 hPa
Видимость 10 км и более
небольшая облачность на высоте 2200 фута

METAR: MKJP 150300Z 12010KT 9999 FEW022 29/23 Q1014

Время: 22:40 (03:40 UTC)

Прогноз

Эта сводка был подготовлена 4 часа и 25 минут назад, в 23:15 UTC
Прогноз действительный с 15-го 00 UTC до 15-го 24 UTC
Ветер 10 Узел от юго-восточный
Видимость 10 км и более
небольшая облачность на высоте 2200 фута
изменения
С 15-го 06 UTC до 15-го 08 UTC
Ветер 5 Узел от северный
изменения
С 15-го 14 UTC до 15-го 16 UTC
Ветер 22 Узел от юго-восточный
небольшая облачность на высоте 2200 фута, Кучево-дождевые.

TAF: MKJP 142315Z 1500/1524 14010KT 9999 FEW022 BECMG 1506/1508 36005KT BECMG 1514/1516 14022KT FEW022CB

Метеонаблюдения и прогнозы для более 4000 аэропортов (сводки METAR и TAF).

Имеющиеся станции представлены на карте желтыми и красными точками.

Чтобы увидеть название станции, наведите на нее мышь.

Затем щелкните, чтобы увидеть метеонаблюдения и метеопрогнозы.

Управление картой: чтобы увеличить масштаб, щелкните зеленые кнопки с черным крестиком; чтобы уменьшить масштаб, щелкните зеленую кнопку с тире; для просмотра соседних карт щелкайте зеленые стрелки.


METAR-TAF: